Time;durP1;ratioP1;P1;durP2;ratioP2;P2;SDS_P1;SDS_P2;PMS_P1;PMS_P2;Temp;Humidity;BMP_temperature;BMP_pressure;BME280_temperature;BME280_humidity;BME280_pressure;Samples;Min_cycle;Max_cycle;Signal;HPM_P1;HPM_P2
2021/12/14 00:02:15;;;;;;;;;;;;;;;-0.22;100.00;95299.91;5090851;28;19930;-68
2021/12/14 00:04:43;;;;;;;;;;;;;;;-0.22;100.00;95302.47;5089628;28;19920;-68
2021/12/14 00:07:12;;;;;;;;;;;;;;;-0.22;100.00;95299.91;5091112;28;20318;-68
2021/12/14 00:09:41;;;;;;;;;;;;;;;-0.24;100.00;95306.91;5088314;28;19924;-68
2021/12/14 00:12:26;;;;;;;;;;;;;;;-0.28;100.00;95305.59;5092788;28;19923;-68
2021/12/14 00:15:04;;;;;;;;;;;;;;;-0.26;100.00;95306.25;5087383;28;19949;-68
2021/12/14 00:17:37;;;;;;;;;;;;;;;-0.35;100.00;95309.72;5084798;28;19924;-68
2021/12/14 00:20:10;;;;;;;;;;;;;;;-0.42;100.00;95308.72;5090028;28;20645;-68
2021/12/14 00:24:06;;;;;;;;;;;;;;;-0.33;100.00;95305.25;5096312;28;20018;-68
2021/12/14 00:25:26;;;;;;;;;;;;;;;-0.35;100.00;95308.94;5086553;28;19927;-68
2021/12/14 00:27:53;;;;;;;;;;;;;;;-0.39;100.00;95323.78;5086409;28;20409;-69
2021/12/14 00:30:20;;;;;;;;;;;;;;;-0.40;100.00;95315.31;5093645;28;19923;-68
2021/12/14 00:32:47;;;;;;;;;;;;;;;-0.37;100.00;95321.88;5087756;28;19928;-69
2021/12/14 00:35:14;;;;;;;;;;;;;;;-0.41;100.00;95320.59;5107165;27;19928;-69
2021/12/14 00:37:45;;;;;;;;;;;;;;;-0.38;100.00;95325.38;5089283;28;19920;-68
2021/12/14 00:40:18;;;;;;;;;;;;;;;-0.38;100.00;95320.25;5076662;28;19981;-68
2021/12/14 00:42:45;;;;;;;;;;;;;;;-0.42;100.00;95324.09;5070508;28;19927;-68
2021/12/14 00:45:12;;;;;;;;;;;;;;;-0.42;100.00;95329.19;5086490;28;19926;-68
2021/12/14 00:47:39;;;;;;;;;;;;;;;-0.42;100.00;95330.00;5091566;28;20010;-68
2021/12/14 00:50:07;;;;;;;;;;;;;;;-0.41;100.00;95330.81;5067414;28;19985;-67
2021/12/14 00:52:34;;;;;;;;;;;;;;;-0.37;100.00;95332.13;5050325;28;20003;-69
2021/12/14 00:55:01;;;;;;;;;;;;;;;-0.39;100.00;95328.91;5090425;28;19920;-68
2021/12/14 00:57:29;;;;;;;;;;;;;;;-0.39;100.00;95329.69;5092324;28;19927;-68
2021/12/14 00:59:56;;;;;;;;;;;;;;;-0.41;100.00;95328.25;5075190;28;20413;-68
2021/12/14 01:02:24;;;;;;;;;;;;;;;-0.38;100.00;95327.94;5075053;28;19963;-68
2021/12/14 01:04:53;;;;;;;;;;;;;;;-0.40;100.00;95322.16;5073620;28;19966;-68
2021/12/14 01:07:21;;;;;;;;;;;;;;;-0.44;100.00;95320.88;5077525;28;19939;-68
2021/12/14 01:09:50;;;;;;;;;;;;;;;-0.47;100.00;95318.59;5105242;28;19927;-68
2021/12/14 01:12:27;;;;;;;;;;;;;;;-0.52;100.00;95318.25;5071614;28;19926;-68
2021/12/14 01:15:12;;;;;;;;;;;;;;;-0.48;100.00;95319.56;5087867;28;20062;-68
2021/12/14 01:17:55;;;;;;;;;;;;;;;-0.42;100.00;95324.09;5074546;28;19920;-68
2021/12/14 01:20:30;;;;;;;;;;;;;;;-0.44;100.00;95321.66;5075403;28;20286;-68
2021/12/14 01:23:00;;;;;;;;;;;;;;;-0.50;100.00;95324.03;5089772;28;19924;-67
2021/12/14 01:25:35;;;;;;;;;;;;;;;-0.53;100.00;95322.56;5075003;28;19928;-68
2021/12/14 01:28:02;;;;;;;;;;;;;;;-0.52;100.00;95319.06;5092471;28;19977;-68
2021/12/14 01:30:32;;;;;;;;;;;;;;;-0.49;100.00;95333.31;5070436;28;19924;-67
2021/12/14 01:33:04;;;;;;;;;;;;;;;-0.47;100.00;95321.16;5070887;28;20439;-69
2021/12/14 01:35:33;;;;;;;;;;;;;;;-0.48;100.00;95334.94;5088017;28;20448;-67
2021/12/14 01:40:54;;;;;;;;;;;;;;;-0.52;100.00;95323.38;5065574;28;19924;-67
2021/12/14 01:43:37;;;;;;;;;;;;;;;-0.55;100.00;95323.69;5068892;28;19928;-67
2021/12/14 01:46:16;;;;;;;;;;;;;;;-0.59;100.00;95316.31;5073633;28;19942;-67
2021/12/14 01:48:43;;;;;;;;;;;;;;;-0.59;100.00;95313.75;5077576;28;19931;-67
2021/12/14 01:51:38;;;;;;;;;;;;;;;-0.50;100.00;95311.25;5089659;28;20008;-68
2021/12/14 01:54:16;;;;;;;;;;;;;;;-0.51;100.00;95310.44;5096799;28;19920;-68
2021/12/14 01:56:43;;;;;;;;;;;;;;;-0.52;100.00;95318.25;5110140;27;20356;-68
2021/12/14 01:59:25;;;;;;;;;;;;;;;-0.55;100.00;95314.25;5079024;28;19923;-68
2021/12/14 02:02:07;;;;;;;;;;;;;;;-0.52;100.00;95302.91;5076614;28;20006;-68
2021/12/14 02:04:38;;;;;;;;;;;;;;;-0.61;100.00;95314.84;5077917;28;19920;-68
2021/12/14 02:07:06;;;;;;;;;;;;;;;-0.61;100.00;95310.53;5078804;28;20328;-68
2021/12/14 02:09:34;;;;;;;;;;;;;;;-0.60;100.00;95306.22;5088884;28;19924;-68
2021/12/14 02:12:06;;;;;;;;;;;;;;;-0.59;100.00;95313.75;5091883;27;19928;-68
2021/12/14 02:14:33;;;;;;;;;;;;;;;-0.53;100.00;95306.44;5075387;28;19924;-68
2021/12/14 02:17:02;;;;;;;;;;;;;;;-0.50;100.00;95301.00;5068079;28;19924;-68
2021/12/14 02:19:31;;;;;;;;;;;;;;;-0.45;100.00;95311.56;5090559;28;20369;-67
2021/12/14 02:21:58;;;;;;;;;;;;;;;-0.42;100.00;95318.97;5074241;28;20014;-68
2021/12/14 02:24:26;;;;;;;;;;;;;;;-0.46;100.00;95321.03;5094545;28;19920;-68
2021/12/14 02:26:57;;;;;;;;;;;;;;;-0.36;100.00;95317.56;5071422;28;19969;-67
2021/12/14 02:29:24;;;;;;;;;;;;;;;-0.36;100.00;95315.00;5075602;28;19924;-68
2021/12/14 02:31:53;;;;;;;;;;;;;;;-0.42;100.00;95324.09;5076997;28;19920;-68
2021/12/14 02:34:20;;;;;;;;;;;;;;;-0.37;100.00;95321.88;5079193;28;19923;-68
2021/12/14 02:36:48;;;;;;;;;;;;;;;-0.47;100.00;95310.94;5095728;28;19920;-68
2021/12/14 02:39:45;;;;;;;;;;;;;;;-0.34;100.00;95310.53;5071940;28;19928;-68
2021/12/14 02:42:15;;;;;;;;;;;;;;;-0.47;100.00;95305.81;5080506;28;20337;-68
2021/12/14 02:44:45;;;;;;;;;;;;;;;-0.39;100.00;95309.22;5069590;28;19985;-67
2021/12/14 02:47:16;;;;;;;;;;;;;;;-0.35;100.00;95314.84;5079501;28;19919;-68
2021/12/14 02:49:43;;;;;;;;;;;;;;;-0.40;100.00;95311.94;5089871;28;19924;-68
2021/12/14 02:52:13;;;;;;;;;;;;;;;-0.51;100.00;95314.75;5091275;28;19924;-68
2021/12/14 02:54:44;;;;;;;;;;;;;;;-0.57;100.00;95312.81;5077494;28;20400;-68
2021/12/14 02:57:14;;;;;;;;;;;;;;;-0.67;100.00;95316.22;5076071;28;19924;-68
2021/12/14 02:59:42;;;;;;;;;;;;;;;-0.57;100.00;95305.13;5091827;28;20003;-68
2021/12/14 03:02:11;;;;;;;;;;;;;;;-0.66;100.00;95317.06;5097170;28;19923;-67
2021/12/14 03:04:45;;;;;;;;;;;;;;;-0.71;100.00;95309.81;5075747;28;19974;-68
2021/12/14 03:07:12;;;;;;;;;;;;;;;-0.72;100.00;95318.47;5072991;28;20350;-68
2021/12/14 03:10:07;;;;;;;;;;;;;;;-0.75;100.00;95313.63;5078300;28;19924;-69
2021/12/14 03:12:35;;;;;;;;;;;;;;;-0.70;100.00;95320.84;5083389;28;19928;-67
2021/12/14 03:15:02;;;;;;;;;;;;;;;-0.72;100.00;95318.47;5093913;28;20489;-68
2021/12/14 03:17:29;;;;;;;;;;;;;;;-0.76;100.00;95317.13;5089255;28;19923;-68
2021/12/14 03:20:00;;;;;;;;;;;;;;;-0.66;100.00;95322.97;5093543;28;19919;-67
2021/12/14 03:22:30;;;;;;;;;;;;;;;-0.67;100.00;95323.91;5095723;28;19934;-68
2021/12/14 03:24:57;;;;;;;;;;;;;;;-0.60;100.00;95332.59;5075916;28;19959;-68
2021/12/14 03:27:24;;;;;;;;;;;;;;;-0.61;100.00;95331.00;5097858;28;20335;-68
2021/12/14 03:29:52;;;;;;;;;;;;;;;-0.62;100.00;95326.81;5080643;28;19920;-68
2021/12/14 03:32:22;;;;;;;;;;;;;;;-0.66;100.00;95338.31;5077986;28;19993;-68
2021/12/14 03:34:49;;;;;;;;;;;;;;;-0.60;100.00;95327.47;5090630;28;19928;-68
2021/12/14 03:37:19;;;;;;;;;;;;;;;-0.64;100.00;95333.84;5091763;28;21880;-67
2021/12/14 03:39:50;;;;;;;;;;;;;;;-0.63;100.00;95335.47;5079833;28;20018;-67
2021/12/14 03:42:35;;;;;;;;;;;;;;;-0.63;100.00;95332.91;5071981;28;19920;-67
2021/12/14 03:45:08;;;;;;;;;;;;;;;-0.65;100.00;95329.69;5073768;28;20444;-68
2021/12/14 03:47:38;;;;;;;;;;;;;;;-0.67;100.00;95331.59;5078728;28;19924;-68
2021/12/14 03:50:11;;;;;;;;;;;;;;;-0.58;100.00;95335.00;5080401;28;19930;-68
2021/12/14 03:52:39;;;;;;;;;;;;;;;-0.53;100.00;95337.13;5073491;28;19920;-68
2021/12/14 03:55:14;;;;;;;;;;;;;;;-0.53;100.00;95335.38;5075992;28;20396;-68
2021/12/14 03:57:41;;;;;;;;;;;;;;;-0.56;100.00;95342.53;5088465;28;19920;-68
2021/12/14 04:00:11;;;;;;;;;;;;;;;-0.57;100.00;95346.06;5062229;28;20412;-67
2021/12/14 04:02:46;;;;;;;;;;;;;;;-0.51;100.00;95346.25;5063214;28;20377;-67
2021/12/14 04:05:17;;;;;;;;;;;;;;;-0.49;100.00;95348.66;5062332;28;19974;-67
2021/12/14 04:07:44;;;;;;;;;;;;;;;-0.50;100.00;95357.31;5062250;28;20325;-67
2021/12/14 04:10:27;;;;;;;;;;;;;;;-0.44;100.00;95346.47;5061425;28;20015;-67
2021/12/14 04:12:54;;;;;;;;;;;;;;;-0.47;100.00;95346.75;5061179;28;19924;-68
2021/12/14 04:15:22;;;;;;;;;;;;;;;-0.44;100.00;95356.69;5061465;28;19939;-67
2021/12/14 04:17:49;;;;;;;;;;;;;;;-0.45;100.00;95349.97;5062081;28;19924;-68
2021/12/14 04:20:30;;;;;;;;;;;;;;;-0.52;100.00;95354.06;5060404;28;19924;-68
2021/12/14 04:22:58;;;;;;;;;;;;;;;-0.44;100.00;95359.25;5059749;28;19924;-67
2021/12/14 04:25:28;;;;;;;;;;;;;;;-0.47;100.00;95362.09;5060911;28;19920;-67
2021/12/14 04:27:55;;;;;;;;;;;;;;;-0.48;100.00;95371.56;5060598;28;22102;-67
2021/12/14 04:30:23;;;;;;;;;;;;;;;-0.37;100.00;95357.72;5060424;28;19928;-68
2021/12/14 04:32:51;;;;;;;;;;;;;;;-0.44;100.00;95364.38;5060925;28;20298;-67
2021/12/14 04:35:18;;;;;;;;;;;;;;;-0.47;100.00;95372.34;5059396;28;20455;-68
2021/12/14 04:37:49;;;;;;;;;;;;;;;-0.39;100.00;95365.53;5061434;28;19974;-67
2021/12/14 04:54:10;;;;;;;;;;;;;;;-0.38;100.00;95381.69;5059235;28;19959;-67
2021/12/14 04:56:39;;;;;;;;;;;;;;;-0.32;100.00;95370.88;5060439;28;19931;-67
2021/12/14 04:59:09;;;;;;;;;;;;;;;-0.25;100.00;95374.44;5066369;28;21903;-68
2021/12/14 05:01:38;;;;;;;;;;;;;;;-0.35;100.00;95366.03;5075392;28;19959;-68
2021/12/14 05:04:08;;;;;;;;;;;;;;;-0.42;100.00;95375.25;5068986;28;19970;-67
2021/12/14 05:06:49;;;;;;;;;;;;;;;-0.46;100.00;95367.09;5073034;28;20351;-68
2021/12/14 05:09:29;;;;;;;;;;;;;;;-0.44;100.00;95372.84;5064055;28;19924;-67
2021/12/14 05:12:10;;;;;;;;;;;;;;;-0.54;100.00;95366.22;5067589;28;19962;-67
2021/12/14 05:14:48;;;;;;;;;;;;;;;-0.51;100.00;95371.03;5064644;28;19994;-68
2021/12/14 05:17:16;;;;;;;;;;;;;;;-0.63;100.00;95371.28;5071521;28;19924;-67
2021/12/14 05:19:44;;;;;;;;;;;;;;;-0.58;100.00;95375.94;5063409;28;20386;-68
2021/12/14 05:22:14;;;;;;;;;;;;;;;-0.60;100.00;95372.72;5068064;28;19920;-67
2021/12/14 05:24:48;;;;;;;;;;;;;;;-0.62;100.00;95380.56;5074243;28;19920;-68
2021/12/14 05:27:19;;;;;;;;;;;;;;;-0.67;100.00;95382.75;5074197;28;19927;-68
2021/12/14 05:29:46;;;;;;;;;;;;;;;-0.65;100.00;95380.88;5110125;27;19929;-68
2021/12/14 05:32:15;;;;;;;;;;;;;;;-0.63;100.00;95378.97;5069971;28;20385;-68
2021/12/14 05:34:46;;;;;;;;;;;;;;;-0.63;100.00;95378.97;5096456;28;19928;-68
2021/12/14 05:37:17;;;;;;;;;;;;;;;-0.65;100.00;95386.00;5075481;28;20381;-68
2021/12/14 05:39:50;;;;;;;;;;;;;;;-0.61;100.00;95387.28;5070097;28;20354;-68
2021/12/14 05:45:26;;;;;;;;;;;;;;;-0.59;100.00;95395.63;5076599;28;19924;-68
2021/12/14 05:47:56;;;;;;;;;;;;;;;-0.59;100.00;95395.63;5073611;28;19931;-68
2021/12/14 05:50:46;;;;;;;;;;;;;;;-0.53;100.00;95404.44;5080192;28;19955;-68
2021/12/14 05:53:19;;;;;;;;;;;;;;;-0.47;100.00;95403.06;5065681;28;19927;-68
2021/12/14 05:55:46;;;;;;;;;;;;;;;-0.45;100.00;95416.50;5088991;28;19920;-69
2021/12/14 05:58:16;;;;;;;;;;;;;;;-0.54;100.00;95413.09;5060903;28;19928;-69
2021/12/14 06:00:46;;;;;;;;;;;;;;;-0.56;100.00;95409.06;5073144;28;19928;-69
2021/12/14 06:03:25;;;;;;;;;;;;;;;-0.39;100.00;95416.72;5072857;28;19928;-68
2021/12/14 06:05:53;;;;;;;;;;;;;;;-0.37;100.00;95419.13;5074536;28;19920;-68
2021/12/14 06:08:28;;;;;;;;;;;;;;;-0.33;100.00;95414.53;5078316;28;20377;-69
2021/12/14 06:11:02;;;;;;;;;;;;;;;-0.39;100.00;95419.28;5112537;27;20372;-69
2021/12/14 06:13:36;;;;;;;;;;;;;;;-0.47;100.00;95418.41;5079550;28;19967;-69
2021/12/14 06:16:03;;;;;;;;;;;;;;;-0.42;100.00;95426.44;5079482;28;20335;-69
2021/12/14 06:18:31;;;;;;;;;;;;;;;-0.32;100.00;95427.19;5078979;28;20340;-69
2021/12/14 06:21:06;;;;;;;;;;;;;;;-0.33;100.00;95420.44;5082807;28;20014;-69
2021/12/14 06:23:36;;;;;;;;;;;;;;;-0.29;100.00;95429.44;5082660;28;19924;-69
2021/12/14 06:26:36;;;;;;;;;;;;;;;-0.30;100.00;95437.28;5094116;28;19972;-69
2021/12/14 06:29:03;;;;;;;;;;;;;;;-0.31;100.00;95433.09;5097681;28;20290;-69
2021/12/14 06:31:30;;;;;;;;;;;;;;;-0.23;100.00;95436.53;5112334;27;19935;-69
2021/12/14 06:34:09;;;;;;;;;;;;;;;-0.24;100.00;95440.03;5077836;28;19920;-69
2021/12/14 06:37:04;;;;;;;;;;;;;;;-0.20;100.00;95446.47;5109926;27;20014;-69
2021/12/14 06:39:54;;;;;;;;;;;;;;;-0.22;100.00;95448.38;5111487;27;19927;-69
2021/12/14 06:42:20;;;;;;;;;;;;;;;-0.18;100.00;95453.19;5090870;28;19955;-69
2021/12/14 06:44:48;;;;;;;;;;;;;;;-0.12;100.00;95457.72;5076904;28;19930;-69
2021/12/14 06:47:14;;;;;;;;;;;;;;;-0.10;100.00;95460.94;5094718;28;20026;-69
2021/12/14 06:49:41;;;;;;;;;;;;;;;-0.05;100.00;95456.97;5080180;28;19920;-69
2021/12/14 06:52:09;;;;;;;;;;;;;;;-0.06;100.00;95463.03;5076831;28;19942;-69
2021/12/14 06:54:44;;;;;;;;;;;;;;;-0.07;100.00;95466.56;5072464;28;19928;-69
2021/12/14 06:57:43;;;;;;;;;;;;;;;-0.04;100.00;95465.47;5063133;28;20021;-69
2021/12/14 07:00:23;;;;;;;;;;;;;;;-0.04;100.00;95475.69;5111978;27;20302;-69
2021/12/14 07:02:53;;;;;;;;;;;;;;;0.05;100.00;95485.03;5075089;28;19924;-69
2021/12/14 07:05:35;;;;;;;;;;;;;;;-0.02;100.00;95478.91;5080634;28;19920;-70
2021/12/14 07:08:14;;;;;;;;;;;;;;;0.04;100.00;95470.66;5073937;28;19920;-69
2021/12/14 07:10:42;;;;;;;;;;;;;;;-0.03;100.00;95473.00;5097152;28;19934;-69
2021/12/14 07:13:11;;;;;;;;;;;;;;;0.02;100.00;95475.13;5094758;28;19938;-69
2021/12/14 07:15:37;;;;;;;;;;;;;;;0.07;100.00;95472.09;5092640;28;19923;-69
2021/12/14 07:18:05;;;;;;;;;;;;;;;0.09;100.00;95475.31;5092885;28;19920;-69
2021/12/14 07:20:51;;;;;;;;;;;;;;;0.08;100.00;95479.63;5094999;28;19919;-69
2021/12/14 07:23:18;;;;;;;;;;;;;;;0.08;100.00;95484.75;5091773;28;20313;-69
2021/12/14 07:25:50;;;;;;;;;;;;;;;0.12;100.00;95480.94;5094436;28;19935;-68
2021/12/14 07:28:17;;;;;;;;;;;;;;;0.08;100.00;95479.63;5091631;28;19946;-68
2021/12/14 07:30:55;;;;;;;;;;;;;;;0.07;100.00;95483.13;5094818;28;20769;-69
2021/12/14 07:33:22;;;;;;;;;;;;;;;0.15;100.00;95488.31;5097028;28;19959;-69
2021/12/14 07:35:48;;;;;;;;;;;;;;;0.21;100.00;95488.69;5095106;28;20010;-68
2021/12/14 07:38:15;;;;;;;;;;;;;;;0.24;100.00;95488.41;5090371;28;20332;-68
2021/12/14 07:40:44;;;;;;;;;;;;;;;0.26;100.00;95489.84;5091605;28;19942;-69
2021/12/14 07:43:10;;;;;;;;;;;;;;;0.17;100.00;95503.56;5087325;28;19946;-69
2021/12/14 07:45:41;;;;;;;;;;;;;;;0.13;100.00;95504.81;5069680;28;19923;-69
2021/12/14 07:48:08;;;;;;;;;;;;;;;0.16;100.00;95497.63;5094971;28;20007;-69
2021/12/14 07:50:36;;;;;;;;;;;;;;;0.14;100.00;95499.50;5087859;28;19920;-69
2021/12/14 07:53:03;;;;;;;;;;;;;;;0.31;100.00;95509.91;5105014;27;20104;-69
2021/12/14 07:55:30;;;;;;;;;;;;;;;0.32;100.00;95509.72;5089750;28;20401;-68
2021/12/14 07:57:56;;;;;;;;;;;;;;;0.22;100.00;95515.91;5077379;28;19938;-69
2021/12/14 08:00:25;;;;;;;;;;;;;;;0.24;100.00;95514.00;5064319;28;19928;-69
2021/12/14 08:02:57;;;;;;;;;;;;;;;0.29;100.00;95516.91;5069063;28;19931;-68
2021/12/14 08:05:24;;;;;;;;;;;;;;;0.19;100.00;95517.81;5056116;28;19925;-69
2021/12/14 08:08:03;;;;;;;;;;;;;;;0.33;100.00;95513.91;5049280;28;19925;-69
2021/12/14 08:10:33;;;;;;;;;;;;;;;0.40;100.00;95521.81;5051062;28;19920;-69
2021/12/14 08:13:21;;;;;;;;;;;;;;;0.44;100.00;95525.66;5053586;28;19920;-69
2021/12/14 08:15:53;;;;;;;;;;;;;;;0.39;100.00;95527.88;5054593;28;19921;-69
2021/12/14 08:18:31;;;;;;;;;;;;;;;0.32;100.00;95529.44;5054167;28;19926;-69
2021/12/14 08:21:27;;;;;;;;;;;;;;;0.27;100.00;95523.94;5049781;28;19932;-69
2021/12/14 08:24:00;;;;;;;;;;;;;;;0.29;100.00;95532.28;5041458;28;19927;-69
2021/12/14 08:26:30;;;;;;;;;;;;;;;0.35;100.00;95531.69;5049734;28;19921;-70
2021/12/14 08:29:08;;;;;;;;;;;;;;;0.47;100.00;95525.38;5047432;28;20003;-69
2021/12/14 08:31:36;;;;;;;;;;;;;;;0.37;100.00;95527.22;5078617;28;20397;-70
2021/12/14 08:34:05;;;;;;;;;;;;;;;0.44;100.00;95525.66;5047047;28;19959;-69
2021/12/14 08:36:36;;;;;;;;;;;;;;;0.48;100.00;95532.09;5050131;28;19925;-71
2021/12/14 08:39:06;;;;;;;;;;;;;;;0.57;100.00;95526.06;5055574;28;19928;-70
2021/12/14 08:41:32;;;;;;;;;;;;;;;0.61;100.00;95521.44;5054947;28;19924;-69
2021/12/14 08:44:08;;;;;;;;;;;;;;;0.52;100.00;95523.16;5052677;28;19942;-69
2021/12/14 08:46:36;;;;;;;;;;;;;;;0.71;100.00;95521.34;5052344;28;19967;-69
2021/12/14 08:49:05;;;;;;;;;;;;;;;0.71;100.00;95521.34;5055920;28;19955;-69
2021/12/14 08:51:35;;;;;;;;;;;;;;;0.78;100.00;95522.34;5056120;28;20384;-70
2021/12/14 08:54:02;;;;;;;;;;;;;;;0.79;100.00;95518.78;5064666;28;19921;-70
2021/12/14 08:56:30;;;;;;;;;;;;;;;0.93;100.00;95515.66;5055750;28;19925;-70
2021/12/14 08:58:58;;;;;;;;;;;;;;;1.04;100.00;95516.34;5068533;28;19920;-70
2021/12/14 09:01:26;;;;;;;;;;;;;;;0.93;100.00;95515.66;5097417;28;20361;-70
2021/12/14 09:03:57;;;;;;;;;;;;;;;0.98;100.00;95516.97;5075212;28;19934;-71
2021/12/14 09:06:29;;;;;;;;;;;;;;;1.05;100.00;95507.72;5096331;28;19923;-70
2021/12/14 09:08:59;;;;;;;;;;;;;;;1.01;100.00;95511.50;5096999;28;20003;-69
2021/12/14 09:11:28;;;;;;;;;;;;;;;0.90;100.00;95505.72;5092094;28;20481;-69
2021/12/14 09:13:55;;;;;;;;;;;;;;;0.92;100.00;95508.13;5098750;28;19950;-70
2021/12/14 09:16:25;;;;;;;;;;;;;;;1.03;100.00;95500.16;5093836;28;19927;-69
2021/12/14 09:18:56;;;;;;;;;;;;;;;1.17;100.00;95511.59;5088969;28;19930;-69
2021/12/14 09:21:28;;;;;;;;;;;;;;;1.11;100.00;95502.75;5086743;28;19942;-69
2021/12/14 09:23:58;;;;;;;;;;;;;;;1.15;100.00;95498.09;5100646;28;20354;-70
2021/12/14 09:26:31;;;;;;;;;;;;;;;1.21;100.00;95487.22;5097036;28;20425;-70
2021/12/14 09:28:58;;;;;;;;;;;;;;;1.34;100.00;95487.56;5097235;28;20396;-70
2021/12/14 09:31:32;;;;;;;;;;;;;;;1.33;100.00;95485.97;5088901;28;19924;-69
2021/12/14 09:33:59;;;;;;;;;;;;;;;1.36;100.00;95484.06;5090744;28;19935;-69
2021/12/14 09:36:29;;;;;;;;;;;;;;;1.38;100.00;95482.13;5093264;28;20329;-69
2021/12/14 09:38:59;;;;;;;;;;;;;;;1.41;100.00;95479.25;5092425;28;19985;-69
2021/12/14 09:41:28;;;;;;;;;;;;;;;1.47;100.00;95478.63;5094087;28;20399;-69
2021/12/14 09:43:55;;;;;;;;;;;;;;;1.59;100.00;95477.34;5098882;28;19924;-71
2021/12/14 09:46:22;;;;;;;;;;;;;;;1.60;100.00;95476.38;5096048;28;19999;-69
2021/12/14 09:48:53;;;;;;;;;;;;;;;1.71;100.00;95473.50;5095726;28;19920;-70
2021/12/14 09:51:23;;;;;;;;;;;;;;;1.93;100.00;95481.53;5100534;28;19946;-70
2021/12/14 09:53:52;;;;;;;;;;;;;;;1.90;100.00;95482.66;5097585;28;19924;-70
2021/12/14 09:56:21;;;;;;;;;;;;;;;1.89;100.00;95467.38;5098931;28;20035;-70
2021/12/14 09:58:50;;;;;;;;;;;;;;;2.01;100.00;95467.88;5085198;28;20472;-70
2021/12/14 10:01:30;;;;;;;;;;;;;;;2.04;100.00;95468.38;5096428;28;20006;-70
2021/12/14 10:03:58;;;;;;;;;;;;;;;1.94;100.00;95466.94;5100397;28;20328;-70
2021/12/14 10:06:27;;;;;;;;;;;;;;;1.99;100.00;95460.34;5095194;28;19930;-70
2021/12/14 10:08:59;;;;;;;;;;;;;;;2.10;100.00;95462.56;5097076;28;19927;-70
2021/12/14 10:11:41;;;;;;;;;;;;;;;2.20;100.00;95462.41;5091391;28;19923;-72
2021/12/14 10:14:09;;;;;;;;;;;;;;;2.13;100.00;95463.22;5096533;28;20408;-71
2021/12/14 10:21:30;;;;;;;15.20;8.77;;;;;;;1.76;100.00;95443.97;5073063;27;20152;-70
2021/12/14 10:24:00;;;;;;;14.48;7.65;;;;;;;1.72;100.00;95459.69;5087639;28;20479;-69
2021/12/14 10:26:29;;;;;;;21.27;10.57;;;;;;;1.72;100.00;95459.69;5103290;28;20040;-70
2021/12/14 10:29:00;;;;;;;18.05;8.45;;;;;;;1.71;100.00;95440.13;5110224;28;20052;-70
2021/12/14 10:31:37;;;;;;;17.10;8.50;;;;;;;1.86;100.00;95449.75;5092744;28;20043;-70
2021/12/14 10:34:14;;;;;;;21.92;10.35;;;;;;;2.03;100.00;95446.19;5109639;28;20043;-70
2021/12/14 10:36:45;;;;;;;20.45;9.13;;;;;;;2.19;100.00;95444.56;5105332;28;20062;-71
2021/12/14 10:42:39;;;;;;;16.98;9.48;;;;;;;2.16;100.00;95443.16;5101167;28;20987;-70
2021/12/14 10:45:03;;;;;;;17.23;8.90;;;;;;;2.21;100.00;95442.63;5104315;28;20420;-71
2021/12/14 10:47:32;;;;;;;19.50;9.20;;;;;;;2.21;100.00;95443.44;5106241;28;20044;-70
2021/12/14 10:50:17;;;;;;;23.52;10.57;;;;;;;2.21;100.00;95443.44;5107917;28;20041;-71
2021/12/14 10:52:45;;;;;;;17.20;9.07;;;;;;;2.03;100.00;95417.94;5105978;28;20040;-70
2021/12/14 10:55:23;;;;;;;19.23;9.93;;;;;;;2.09;100.00;95435.28;5108360;28;20054;-70
2021/12/14 10:57:49;;;;;;;20.73;10.65;;;;;;;2.12;100.00;95438.47;5081419;28;20142;-70
2021/12/14 11:00:32;;;;;;;15.32;8.35;;;;;;;2.24;100.00;95437.19;5107260;28;20043;-70
2021/12/14 11:03:10;;;;;;;21.05;9.50;;;;;;;2.24;100.00;95426.91;5109362;28;20497;-70
2021/12/14 11:05:39;;;;;;;14.50;8.48;;;;;;;2.21;100.00;95425.44;5088326;28;20053;-71
2021/12/14 11:08:33;;;;;;;17.17;9.80;;;;;;;2.32;100.00;95439.72;5101668;28;20047;-70
2021/12/14 11:11:02;;;;;;;19.58;10.40;;;;;;;2.24;100.00;95427.69;5104718;28;20039;-70
2021/12/14 11:13:39;;;;;;;19.00;9.80;;;;;;;2.26;100.00;95430.09;5097675;28;20051;-71
2021/12/14 11:16:14;;;;;;;19.02;10.05;;;;;;;2.09;100.00;95404.44;5119266;27;20047;-70
2021/12/14 11:18:43;;;;;;;21.30;9.45;;;;;;;2.16;100.00;95420.00;5099040;28;20063;-70
2021/12/14 11:21:14;;;;;;;24.42;11.80;;;;;;;2.10;100.00;95418.88;5099008;28;20055;-71
2021/12/14 11:23:45;;;;;;;22.35;9.65;;;;;;;2.20;100.00;95430.78;5100789;28;20039;-70
2021/12/14 11:26:40;;;;;;;24.98;11.25;;;;;;;2.20;100.00;95425.63;5103025;28;20040;-69
2021/12/14 11:29:13;;;;;;;28.05;14.32;;;;;;;2.05;100.00;95428.88;5107929;28;20487;-70
2021/12/14 11:31:50;;;;;;;50.75;19.60;;;;;;;2.05;100.00;95423.72;5093728;28;20516;-70
2021/12/14 11:34:29;;;;;;;24.92;13.38;;;;;;;1.84;100.00;95419.09;5089837;28;20044;-70
2021/12/14 11:37:04;;;;;;;30.58;15.23;;;;;;;1.94;100.00;95416.34;5086721;28;20048;-70
2021/12/14 11:39:38;;;;;;;;;;;;;;;1.99;100.00;95419.22;5083097;28;20032;-70
2021/12/14 11:42:28;;;;;;;24.33;10.77;;;;;;;1.90;100.00;95415.84;5086812;28;19951;-70
2021/12/14 11:45:16;;;;;;;21.60;11.57;;;;;;;2.01;100.00;95412.16;5084074;28;20700;-70
2021/12/14 11:47:52;;;;;;;27.80;12.55;;;;;;;1.99;100.00;95421.78;5100722;27;20044;-70
2021/12/14 11:50:24;;;;;;;31.70;12.75;;;;;;;1.98;100.00;95409.94;5086366;28;20459;-70
2021/12/14 11:53:13;;;;;;;23.10;10.38;;;;;;;1.95;100.00;95417.97;5094220;28;20031;-71
2021/12/14 11:55:52;;;;;;;18.88;11.02;;;;;;;1.92;100.00;95418.28;5083878;28;20040;-71
2021/12/14 11:58:30;;;;;;;15.82;9.45;;;;;;;1.74;100.00;95410.75;5089287;28;20044;-71
2021/12/14 12:01:04;;;;;;;21.05;11.05;;;;;;;1.82;100.00;95418.44;5090528;28;20046;-71
2021/12/14 12:04:00;;;;;;;28.55;12.75;;;;;;;1.81;100.00;95418.59;5085856;28;20047;-71
2021/12/14 12:06:43;;;;;;;27.08;13.27;;;;;;;1.84;100.00;95420.88;5069026;28;20071;-71
2021/12/14 12:09:28;;;;;;;29.23;13.48;;;;;;;1.83;100.00;95419.25;5084126;28;20119;-71
2021/12/14 12:11:55;;;;;;;23.42;11.40;;;;;;;1.66;100.00;95419.25;5086159;28;20427;-70
2021/12/14 12:14:33;;;;;;;22.80;12.13;;;;;;;1.63;100.00;95414.44;5081260;28;20043;-69
2021/12/14 12:17:25;;;;;;;24.30;13.23;;;;;;;1.70;100.00;95405.13;5084387;28;20444;-70
2021/12/14 12:20:07;;;;;;;21.08;12.18;;;;;;;1.83;100.00;95408.97;5089947;28;20115;-70
2021/12/14 12:22:37;;;;;;;24.25;11.35;;;;;;;1.75;100.00;95421.81;5093887;28;20123;-70
2021/12/14 12:25:35;;;;;;;21.17;10.23;;;;;;;1.60;100.00;95403.69;5073381;28;20071;-70
2021/12/14 12:28:09;;;;;;;26.38;13.82;;;;;;;1.69;100.00;95408.66;5081482;28;20058;-70
2021/12/14 12:30:42;;;;;;;20.52;12.38;;;;;;;1.56;100.00;95403.19;5088129;28;20114;-70
2021/12/14 12:33:52;;;;;;;21.42;12.20;;;;;;;1.68;100.00;95407.06;5088608;28;20047;-69
2021/12/14 12:36:23;;;;;;;23.70;10.93;;;;;;;1.77;100.00;95412.19;5084495;28;20052;-70
2021/12/14 12:38:50;;;;;;;19.65;10.43;;;;;;;1.69;100.00;95413.81;5089480;28;20039;-70
2021/12/14 12:41:45;;;;;;;24.35;13.32;;;;;;;1.70;100.00;95404.31;5088203;28;20050;-70
2021/12/14 12:44:18;;;;;;;27.60;13.38;;;;;;;1.68;100.00;95407.06;5093438;28;20513;-70
2021/12/14 12:47:07;;;;;;;21.95;10.82;;;;;;;1.64;100.00;95405.78;5092413;28;20048;-70
2021/12/14 12:49:38;;;;;;;22.33;11.10;;;;;;;1.60;100.00;95404.47;5088581;28;20047;-70
2021/12/14 12:52:22;;;;;;;23.95;13.00;;;;;;;1.67;100.00;95410.56;5085384;28;20040;-70
2021/12/14 12:55:09;;;;;;;20.15;11.00;;;;;;;1.61;100.00;95406.09;5087926;28;20048;-70
2021/12/14 12:57:58;;;;;;;21.17;11.32;;;;;;;1.60;100.00;95404.47;5073994;28;20059;-70
2021/12/14 13:00:29;;;;;;;20.52;9.25;;;;;;;1.69;100.00;95407.84;5083773;28;20035;-70
2021/12/14 13:03:03;;;;;;;18.08;9.15;;;;;;;1.76;100.00;95415.72;5086812;28;20048;-70
2021/12/14 13:05:45;;;;;;;18.25;9.15;;;;;;;1.80;100.00;95414.41;5090148;28;20044;-70
2021/12/14 13:08:16;;;;;;;24.05;12.23;;;;;;;1.82;100.00;95417.63;5087975;28;20044;-70
2021/12/14 13:10:51;;;;;;;23.00;12.15;;;;;;;1.87;100.00;95420.53;5092507;28;20536;-69
2021/12/14 13:13:32;;;;;;;22.52;11.38;;;;;;;1.82;100.00;95417.63;5087819;28;20054;-70
2021/12/14 13:16:16;;;;;;;18.92;9.60;;;;;;;1.93;100.00;95404.47;5086208;28;20040;-69
2021/12/14 13:18:54;;;;;;;23.65;9.35;;;;;;;1.84;100.00;95410.59;5091502;28;20903;-71